TimeCDT,TemperatureF,Dew PointF,Humidity,Sea Level PressureIn,VisibilityMPH,Wind Direction,Wind SpeedMPH,Gust SpeedMPH,PrecipitationIn,Events,Conditions,WindDirDegrees,DateUTC
12:54 AM,78.1,68.0,71,29.85,10.0,SSE,4.6,-,N/A,,Clear,160,2013-08-31 05:54:00
1:54 AM,79.0,68.0,69,29.85,10.0,SSE,3.5,-,N/A,,Clear,160,2013-08-31 06:54:00
2:54 AM,75.9,68.0,76,29.84,10.0,SE,3.5,-,N/A,,Clear,140,2013-08-31 07:54:00
3:54 AM,75.9,68.0,76,29.83,10.0,SSE,3.5,-,N/A,,Clear,160,2013-08-31 08:54:00
4:54 AM,75.0,68.0,79,29.83,10.0,South,3.5,-,N/A,,Clear,190,2013-08-31 09:54:00
5:54 AM,73.9,68.0,82,29.83,10.0,South,5.8,-,N/A,,Clear,170,2013-08-31 10:54:00
6:54 AM,75.0,68.0,79,29.85,10.0,Calm,Calm,-,N/A,,Clear,0,2013-08-31 11:54:00
7:54 AM,75.0,69.1,82,29.86,9.0,South,5.8,-,N/A,,Clear,170,2013-08-31 12:54:00
8:54 AM,82.0,68.0,62,29.87,10.0,WSW,4.6,-,N/A,,Clear,250,2013-08-31 13:54:00
9:54 AM,84.9,68.0,57,29.86,10.0,SW,4.6,-,N/A,,Clear,230,2013-08-31 14:54:00
10:54 AM,90.0,70.0,52,29.84,10.0,SSW,3.5,-,N/A,,Clear,210,2013-08-31 15:54:00
11:54 AM,93.0,68.0,44,29.82,10.0,SSE,5.8,-,N/A,,Clear,150,2013-08-31 16:54:00
12:54 PM,96.1,68.0,40,29.81,10.0,South,8.1,-,N/A,,Clear,180,2013-08-31 17:54:00
1:54 PM,98.1,69.1,39,29.80,10.0,SSE,10.4,-,N/A,,Clear,160,2013-08-31 18:54:00
2:54 PM,99.0,68.0,36,29.79,10.0,SSE,8.1,-,N/A,,Clear,150,2013-08-31 19:54:00
3:54 PM,100.0,66.0,33,29.77,10.0,South,10.4,18.4,N/A,,Clear,170,2013-08-31 20:54:00
4:54 PM,99.0,66.9,35,29.76,10.0,SSE,11.5,-,N/A,,Clear,150,2013-08-31 21:54:00
5:54 PM,98.1,69.1,39,29.75,10.0,SE,8.1,18.4,N/A,,Clear,130,2013-08-31 22:54:00
6:54 PM,93.9,71.1,47,29.75,10.0,SE,9.2,-,N/A,,Clear,140,2013-08-31 23:54:00
7:54 PM,88.0,71.1,57,29.75,10.0,SSE,6.9,-,N/A,,Clear,150,2013-09-01 00:54:00
8:54 PM,86.0,71.1,61,29.77,10.0,SSE,6.9,-,N/A,,Clear,160,2013-09-01 01:54:00
9:54 PM,82.9,69.1,63,29.78,10.0,South,5.8,-,N/A,,Clear,170,2013-09-01 02:54:00
10:54 PM,82.0,69.1,65,29.77,6.0,SSE,6.9,-,N/A,,Haze,160,2013-09-01 03:54:00
11:54 PM,81.0,69.1,67,29.76,10.0,South,8.1,-,N/A,,Clear,170,2013-09-01 04:54:00